Hlavní strana
METAR-TAF:

METAR-TAF

Letiště :

Remada, Tunisko

zeměpisná šířka: 32-19N, zeměpisná délka: 010-24E, výška: 300 m

Aktuální stav počasí

Zpráva byla vytvořena před 51 minutami, v 19:00 UTC
Jihojihovýchodní vítr 1 kt
Teplota 16°C
Vlhkost vzduchu 31%
Tlak 1022 hPa
Viditelnost 10 km a více
Žádná oblačnost pod 1500 m, nevyskytují se cumulonimby.

METAR: DTTD 251900Z 16001KT CAVOK 16/M01 Q1022

Čas: 20:51 (19:51 UTC)


TAF: chybějící

Stav a předpovědi počasí z více než 4 000 letišť (zprávy METAR a TAF).

Červené a žluté tečky na mapě představují dostupné meteorologické stanice.

Když kurzor umístíte na tečku, zobrazí se název stanice.

Pak kliknutím zobrazíte stav a předpověď počasí.

Chcete-li změnit mapu, kliknutím na zelené tlačítko se znaménkem +mapu přiblížíte, kliknutím na zelené tlačítko se znaménkem – mapu oddálíte a kliknutím na zelené šipky přejdete na sousední mapy.


METAR-TAF: